Time;durP1;ratioP1;P1;durP2;ratioP2;P2;SDS_P1;SDS_P2;PMS_P1;PMS_P2;Temp;Humidity;BMP_temperature;BMP_pressure;BME280_temperature;BME280_humidity;BME280_pressure;Samples;Min_cycle;Max_cycle;Signal;HPM_P1;HPM_P2
2021/04/07 00:00:08;;;;;;;;;;;11.50;61.20;;;;;;2080482;28;1523;-53
2021/04/07 00:01:27;;;;;;;;;;;11.50;60.60;;;;;;2086748;28;1117;-53
2021/04/07 00:02:46;;;;;;;;;;;11.50;60.60;;;;;;2097633;28;1110;-53
2021/04/07 00:04:05;;;;;;;;;;;11.50;60.60;;;;;;2081396;28;782;-53
2021/04/07 00:05:25;;;;;;;;;;;11.50;60.60;;;;;;2086877;28;704;-51
2021/04/07 00:06:45;;;;;;;;;;;11.50;60.70;;;;;;2090168;28;708;-55
2021/04/07 00:08:04;;;;;;;;;;;11.50;60.60;;;;;;2090263;28;1459;-50
2021/04/07 00:09:24;;;;;;;;;;;11.50;60.70;;;;;;2065113;28;2323;-54
2021/04/07 00:10:43;;;;;;;;;;;11.50;60.70;;;;;;2080105;28;1265;-52
2021/04/07 00:12:03;;;;;;;;;;;11.50;60.70;;;;;;2084779;28;1607;-55
2021/04/07 00:13:22;;;;;;;;;;;11.40;60.50;;;;;;2087086;28;722;-54
2021/04/07 00:14:41;;;;;;;;;;;11.40;61.30;;;;;;2096345;28;1071;-54
2021/04/07 00:16:00;;;;;;;;;;;11.40;61.40;;;;;;2083206;28;856;-54
2021/04/07 00:17:19;;;;;;;;;;;11.40;60.60;;;;;;2089463;28;829;-53
2021/04/07 00:18:39;;;;;;;;;;;11.40;60.60;;;;;;2086126;28;1373;-53
2021/04/07 00:19:58;;;;;;;;;;;11.40;60.60;;;;;;2094264;28;1591;-53
2021/04/07 00:21:17;;;;;;;;;;;11.40;60.60;;;;;;2089296;28;720;-54
2021/04/07 00:22:36;;;;;;;;;;;11.40;60.60;;;;;;2081441;28;1611;-53
2021/04/07 00:23:56;;;;;;;;;;;11.40;60.60;;;;;;2086742;28;718;-52
2021/04/07 00:25:15;;;;;;;;;;;11.40;60.50;;;;;;2098226;28;955;-54
2021/04/07 00:26:35;;;;;;;;;;;11.40;60.60;;;;;;2098281;28;734;-52
2021/04/07 00:28:03;;;;;;;;;;;11.40;60.70;;;;;;2089407;28;1375;-53
2021/04/07 00:29:22;;;;;;;;;;;11.40;60.70;;;;;;2095652;28;1906;-53
2021/04/07 00:30:41;;;;;;;;;;;11.40;60.60;;;;;;2098253;28;726;-53
2021/04/07 00:32:00;;;;;;;;;;;11.40;60.80;;;;;;2088729;28;784;-54
2021/04/07 00:33:19;;;;;;;;;;;11.40;60.60;;;;;;2078385;28;762;-55
2021/04/07 00:34:39;;;;;;;;;;;11.40;60.80;;;;;;2065220;28;798;-53
2021/04/07 00:35:58;;;;;;;;;;;11.40;60.70;;;;;;2075358;28;732;-53
2021/04/07 00:37:17;;;;;;;;;;;11.40;60.60;;;;;;2072984;28;737;-52
2021/04/07 00:38:36;;;;;;;;;;;11.40;60.70;;;;;;2094790;28;1738;-54
2021/04/07 00:39:55;;;;;;;;;;;11.40;60.50;;;;;;2089706;28;835;-53
2021/04/07 00:41:14;;;;;;;;;;;11.40;60.70;;;;;;2094699;28;705;-53
2021/04/07 00:42:35;;;;;;;;;;;11.40;61.40;;;;;;2093400;28;1908;-54
2021/04/07 00:43:54;;;;;;;;;;;11.40;61.40;;;;;;2072436;28;791;-53
2021/04/07 00:45:13;;;;;;;;;;;11.40;60.60;;;;;;2082950;28;901;-51
2021/04/07 00:46:33;;;;;;;;;;;11.30;60.50;;;;;;2084257;28;1051;-53
2021/04/07 00:47:53;;;;;;;;;;;11.30;60.70;;;;;;2081333;28;1419;-53
2021/04/07 00:49:12;;;;;;;;;;;11.30;60.60;;;;;;2094872;28;1898;-54
2021/04/07 00:50:31;;;;;;;;;;;11.30;60.50;;;;;;2081173;28;784;-53
2021/04/07 00:51:51;;;;;;;;;;;11.30;60.70;;;;;;2071184;28;1919;-53
2021/04/07 00:53:10;;;;;;;;;;;11.30;60.70;;;;;;2086075;28;1455;-52
2021/04/07 00:54:29;;;;;;;;;;;11.30;60.60;;;;;;2094708;28;747;-53
2021/04/07 00:55:48;;;;;;;;;;;11.30;60.80;;;;;;2080835;28;719;-54
2021/04/07 00:57:08;;;;;;;;;;;11.30;61.40;;;;;;2091386;28;731;-53
2021/04/07 00:58:27;;;;;;;;;;;11.30;61.40;;;;;;2098063;28;1746;-53
2021/04/07 00:59:46;;;;;;;;;;;11.30;61.50;;;;;;2089145;28;730;-53
2021/04/07 01:01:05;;;;;;;;;;;11.30;60.80;;;;;;2089057;28;777;-52
2021/04/07 01:02:25;;;;;;;;;;;11.30;60.80;;;;;;2083596;28;1628;-53
2021/04/07 01:03:44;;;;;;;;;;;11.30;60.70;;;;;;2077827;28;775;-53
2021/04/07 01:05:04;;;;;;;;;;;11.30;60.70;;;;;;2083782;28;1508;-54
2021/04/07 01:06:23;;;;;;;;;;;11.30;60.70;;;;;;2085997;28;744;-53
2021/04/07 01:07:42;;;;;;;;;;;11.30;60.80;;;;;;2086167;28;850;-53
2021/04/07 01:09:02;;;;;;;;;;;11.30;60.70;;;;;;2077624;28;1902;-53
2021/04/07 01:10:21;;;;;;;;;;;11.30;60.70;;;;;;2082870;28;769;-53
2021/04/07 01:11:40;;;;;;;;;;;11.30;60.80;;;;;;2094143;28;742;-53
2021/04/07 01:13:00;;;;;;;;;;;11.30;60.80;;;;;;2082071;28;1639;-53
2021/04/07 01:14:19;;;;;;;;;;;11.30;60.80;;;;;;2084270;28;949;-53
2021/04/07 01:15:38;;;;;;;;;;;11.30;60.70;;;;;;2083552;28;1165;-53
2021/04/07 01:16:57;;;;;;;;;;;11.30;61.50;;;;;;2066650;28;1744;-53
2021/04/07 01:18:17;;;;;;;;;;;11.30;60.70;;;;;;2077335;28;1650;-54
2021/04/07 01:19:36;;;;;;;;;;;11.30;60.70;;;;;;2072864;28;799;-53
2021/04/07 01:20:55;;;;;;;;;;;11.30;60.70;;;;;;2074659;28;778;-52
2021/04/07 01:22:15;;;;;;;;;;;11.30;60.70;;;;;;2074119;28;775;-53
2021/04/07 01:23:34;;;;;;;;;;;11.30;60.80;;;;;;2082734;28;858;-53
2021/04/07 01:24:53;;;;;;;;;;;11.20;60.60;;;;;;2085838;28;760;-51
2021/04/07 01:26:12;;;;;;;;;;;11.20;60.60;;;;;;2088376;28;1387;-51
2021/04/07 01:27:31;;;;;;;;;;;11.20;60.60;;;;;;2080892;28;758;-52
2021/04/07 01:28:51;;;;;;;;;;;11.20;60.60;;;;;;2086093;28;1902;-52
2021/04/07 01:30:11;;;;;;;;;;;11.20;60.60;;;;;;2080929;28;761;-51
2021/04/07 01:31:30;;;;;;;;;;;11.20;60.70;;;;;;2077224;28;771;-52
2021/04/07 01:32:50;;;;;;;;;;;11.20;61.40;;;;;;2069765;28;720;-52
2021/04/07 01:34:09;;;;;;;;;;;11.20;60.70;;;;;;2077861;28;858;-51
2021/04/07 01:35:28;;;;;;;;;;;11.20;60.70;;;;;;2072779;28;719;-52
2021/04/07 01:36:48;;;;;;;;;;;11.20;60.70;;;;;;2088610;28;1636;-53
2021/04/07 01:38:07;;;;;;;;;;;11.20;60.90;;;;;;2089003;28;1340;-54
2021/04/07 01:39:27;;;;;;;;;;;11.20;60.70;;;;;;2094475;28;741;-52
2021/04/07 01:40:47;;;;;;;;;;;11.20;60.70;;;;;;2098117;28;739;-53
2021/04/07 01:42:06;;;;;;;;;;;11.20;60.70;;;;;;2080053;28;751;-53
2021/04/07 01:43:25;;;;;;;;;;;11.20;60.70;;;;;;2079537;28;781;-53
2021/04/07 01:44:44;;;;;;;;;;;11.20;60.70;;;;;;2073916;28;1560;-54
2021/04/07 01:46:04;;;;;;;;;;;11.20;60.70;;;;;;2073348;28;1079;-53
2021/04/07 01:47:23;;;;;;;;;;;11.20;60.70;;;;;;2069620;28;769;-52
2021/04/07 01:48:42;;;;;;;;;;;11.20;61.60;;;;;;2078055;28;1409;-53
2021/04/07 01:50:03;;;;;;;;;;;11.20;60.80;;;;;;2072631;28;766;-53
2021/04/07 01:51:22;;;;;;;;;;;11.10;60.60;;;;;;2069270;28;782;-53
2021/04/07 01:52:41;;;;;;;;;;;11.20;60.90;;;;;;2077948;28;768;-53
2021/04/07 01:54:01;;;;;;;;;;;11.20;60.90;;;;;;2081219;28;722;-51
2021/04/07 01:55:20;;;;;;;;;;;11.20;60.90;;;;;;2097138;28;1671;-53
2021/04/07 01:56:50;;;;;;;;;;;11.20;61.00;;;;;;2094177;28;1355;-54
2021/04/07 01:58:09;;;;;;;;;;;11.20;60.80;;;;;;2080775;28;1449;-53
2021/04/07 01:59:29;;;;;;;;;;;11.20;61.00;;;;;;2077370;28;706;-53
2021/04/07 02:00:49;;;;;;;;;;;11.20;60.80;;;;;;2080682;28;766;-52
2021/04/07 02:02:08;;;;;;;;;;;11.30;60.70;;;;;;2089008;28;1268;-53
2021/04/07 02:03:27;;;;;;;;;;;11.30;60.50;;;;;;2074248;28;746;-53
2021/04/07 02:04:46;;;;;;;;;;;11.30;60.20;;;;;;2084475;28;732;-53
2021/04/07 02:06:06;;;;;;;;;;;11.40;60.10;;;;;;2082338;28;740;-52
2021/04/07 02:07:25;;;;;;;;;;;11.40;59.90;;;;;;2079529;28;1061;-53
2021/04/07 02:08:44;;;;;;;;;;;11.40;59.70;;;;;;2082820;28;1978;-55
2021/04/07 02:10:06;;;;;;;;;;;11.50;60.30;;;;;;2075064;28;1900;-53
2021/04/07 02:11:25;;;;;;;;;;;11.50;59.60;;;;;;2079039;28;900;-52
2021/04/07 02:12:49;;;;;;;;;;;11.50;59.50;;;;;;2078649;28;1621;-53
2021/04/07 02:14:08;;;;;;;;;;;11.50;59.40;;;;;;2073019;28;1800;-53
2021/04/07 02:15:27;;;;;;;;;;;11.50;59.40;;;;;;2088325;28;1066;-53
2021/04/07 02:16:52;;;;;;;;;;;11.50;59.30;;;;;;2084089;28;1656;-52
2021/04/07 02:18:11;;;;;;;;;;;11.50;59.40;;;;;;2080908;28;1496;-54
2021/04/07 02:19:31;;;;;;;;;;;11.50;59.30;;;;;;2087604;28;1372;-54
2021/04/07 02:20:50;;;;;;;;;;;11.50;59.30;;;;;;2090975;28;1157;-52
2021/04/07 02:22:09;;;;;;;;;;;11.50;59.40;;;;;;2092342;28;865;-53
2021/04/07 02:23:28;;;;;;;;;;;11.50;59.40;;;;;;2090480;28;748;-53
2021/04/07 02:24:48;;;;;;;;;;;11.50;59.40;;;;;;2095804;28;736;-53
2021/04/07 02:26:07;;;;;;;;;;;11.50;59.40;;;;;;2085380;28;2066;-53
2021/04/07 02:27:26;;;;;;;;;;;11.50;59.50;;;;;;2086939;28;1353;-53
2021/04/07 02:28:45;;;;;;;;;;;11.50;59.50;;;;;;2090617;28;1910;-53
2021/04/07 02:30:05;;;;;;;;;;;11.40;59.40;;;;;;2087982;28;1071;-53
2021/04/07 02:31:25;;;;;;;;;;;11.50;59.50;;;;;;2074211;28;1064;-53
2021/04/07 02:32:44;;;;;;;;;;;11.40;59.50;;;;;;2092121;28;1557;-52
2021/04/07 02:34:03;;;;;;;;;;;11.40;59.50;;;;;;2087112;28;724;-53
2021/04/07 02:35:23;;;;;;;;;;;11.40;59.60;;;;;;2087237;28;718;-53
2021/04/07 02:36:42;;;;;;;;;;;11.40;59.50;;;;;;2086472;28;757;-53
2021/04/07 02:38:01;;;;;;;;;;;11.40;59.60;;;;;;2087080;28;1478;-53
2021/04/07 02:39:20;;;;;;;;;;;11.40;59.50;;;;;;2086847;28;733;-53
2021/04/07 02:40:40;;;;;;;;;;;11.40;59.60;;;;;;2086889;28;733;-53
2021/04/07 02:41:59;;;;;;;;;;;11.40;59.60;;;;;;2084364;28;719;-54
2021/04/07 02:43:18;;;;;;;;;;;11.40;59.70;;;;;;2085913;28;1498;-53
2021/04/07 02:44:38;;;;;;;;;;;11.40;59.70;;;;;;2094332;28;1050;-52
2021/04/07 02:45:58;;;;;;;;;;;11.40;59.80;;;;;;2073720;28;987;-52
2021/04/07 02:47:18;;;;;;;;;;;11.40;59.80;;;;;;2092864;28;715;-52
2021/04/07 02:48:37;;;;;;;;;;;11.40;60.40;;;;;;2087773;28;1485;-52
2021/04/07 02:49:57;;;;;;;;;;;11.30;59.70;;;;;;2092977;28;735;-52
2021/04/07 02:51:16;;;;;;;;;;;11.30;59.80;;;;;;2096719;28;695;-51
2021/04/07 02:52:35;;;;;;;;;;;11.30;59.80;;;;;;2089318;28;1497;-53
2021/04/07 02:53:55;;;;;;;;;;;11.30;59.80;;;;;;2083792;28;987;-52
2021/04/07 02:55:14;;;;;;;;;;;11.30;59.80;;;;;;2089085;28;1898;-52
2021/04/07 02:56:33;;;;;;;;;;;11.30;59.80;;;;;;2087030;28;730;-54
2021/04/07 02:57:53;;;;;;;;;;;11.30;59.90;;;;;;2095501;28;1321;-53
2021/04/07 02:59:12;;;;;;;;;;;11.30;59.90;;;;;;2098736;28;726;-51
2021/04/07 03:00:31;;;;;;;;;;;11.30;60.00;;;;;;2099058;28;732;-52
2021/04/07 03:01:50;;;;;;;;;;;11.20;59.80;;;;;;2089667;28;752;-52
2021/04/07 03:03:10;;;;;;;;;;;11.30;60.70;;;;;;2082247;28;1909;-52
2021/04/07 03:04:29;;;;;;;;;;;11.30;60.00;;;;;;2087399;28;756;-52
2021/04/07 03:05:48;;;;;;;;;;;11.20;60.70;;;;;;2090787;28;700;-52
2021/04/07 03:07:07;;;;;;;;;;;11.30;60.10;;;;;;2081816;28;718;-52
2021/04/07 03:08:27;;;;;;;;;;;11.30;60.30;;;;;;2091101;28;1773;-52
2021/04/07 03:09:46;;;;;;;;;;;11.30;60.40;;;;;;2098722;28;1973;-54
2021/04/07 03:11:05;;;;;;;;;;;11.30;60.40;;;;;;2098923;28;728;-52
2021/04/07 03:12:24;;;;;;;;;;;11.30;60.30;;;;;;2098391;28;1008;-53
2021/04/07 03:13:44;;;;;;;;;;;11.30;60.30;;;;;;2090524;28;1047;-51
2021/04/07 03:15:04;;;;;;;;;;;11.30;60.10;;;;;;2088399;28;889;-53
2021/04/07 03:16:23;;;;;;;;;;;11.40;60.00;;;;;;2082284;28;1009;-53
2021/04/07 03:17:42;;;;;;;;;;;11.40;59.80;;;;;;2095206;28;766;-53
2021/04/07 03:19:02;;;;;;;;;;;11.50;59.70;;;;;;2098779;28;707;-54
2021/04/07 03:20:21;;;;;;;;;;;11.50;59.60;;;;;;2094472;28;1597;-53
2021/04/07 03:21:40;;;;;;;;;;;11.60;59.50;;;;;;2081051;28;729;-53
2021/04/07 03:22:59;;;;;;;;;;;11.60;59.90;;;;;;2078458;28;731;-54
2021/04/07 03:24:18;;;;;;;;;;;11.70;59.20;;;;;;2092797;28;1745;-51
2021/04/07 03:25:37;;;;;;;;;;;11.70;59.00;;;;;;2098487;28;958;-52
2021/04/07 03:26:56;;;;;;;;;;;11.70;58.80;;;;;;2089776;28;771;-54
2021/04/07 03:28:16;;;;;;;;;;;11.80;58.70;;;;;;2087304;28;1648;-52
2021/04/07 03:29:35;;;;;;;;;;;11.80;58.50;;;;;;2081268;28;1981;-52
2021/04/07 03:30:54;;;;;;;;;;;11.90;58.40;;;;;;2078553;28;775;-54
2021/04/07 03:32:14;;;;;;;;;;;11.90;58.20;;;;;;2077556;28;769;-53
2021/04/07 03:33:35;;;;;;;;;;;11.90;58.10;;;;;;2087078;28;725;-53
2021/04/07 03:34:54;;;;;;;;;;;11.90;57.90;;;;;;2082511;28;785;-54
2021/04/07 03:36:13;;;;;;;;;;;12.00;58.00;;;;;;2087503;28;1592;-53
2021/04/07 03:37:32;;;;;;;;;;;11.90;57.90;;;;;;2097056;28;1736;-53
2021/04/07 03:38:51;;;;;;;;;;;12.00;58.50;;;;;;2098671;28;791;-53
2021/04/07 03:40:11;;;;;;;;;;;11.90;57.90;;;;;;2089823;28;808;-53
2021/04/07 03:41:30;;;;;;;;;;;12.00;58.10;;;;;;2094861;28;762;-53
2021/04/07 03:42:49;;;;;;;;;;;12.00;58.10;;;;;;2090233;28;766;-53
2021/04/07 03:44:09;;;;;;;;;;;11.90;57.90;;;;;;2069351;28;1702;-53
2021/04/07 03:45:28;;;;;;;;;;;11.90;57.80;;;;;;2076076;28;1131;-52
2021/04/07 03:46:50;;;;;;;;;;;12.00;57.80;;;;;;2081536;28;940;-52
2021/04/07 03:48:11;;;;;;;;;;;12.00;57.80;;;;;;2070868;28;1411;-53
2021/04/07 03:49:31;;;;;;;;;;;12.10;57.60;;;;;;2082962;28;1960;-53
2021/04/07 03:50:50;;;;;;;;;;;12.10;58.10;;;;;;2089932;28;1450;-53
2021/04/07 03:52:09;;;;;;;;;;;12.20;57.90;;;;;;2087036;28;1253;-53
2021/04/07 03:53:29;;;;;;;;;;;12.20;57.20;;;;;;2089566;28;1466;-53
2021/04/07 03:54:50;;;;;;;;;;;12.30;57.10;;;;;;2080710;28;1192;-52
2021/04/07 03:56:09;;;;;;;;;;;12.30;57.00;;;;;;2090393;28;1187;-52
2021/04/07 03:57:29;;;;;;;;;;;12.40;56.90;;;;;;2093007;28;1338;-53
2021/04/07 03:58:48;;;;;;;;;;;12.40;56.80;;;;;;2091174;28;1240;-51
2021/04/07 04:00:07;;;;;;;;;;;12.50;56.70;;;;;;2090050;28;1183;-52
2021/04/07 04:01:27;;;;;;;;;;;12.50;56.50;;;;;;2090144;28;1182;-52
2021/04/07 04:02:46;;;;;;;;;;;12.60;56.50;;;;;;2091498;28;1055;-52
2021/04/07 04:04:05;;;;;;;;;;;12.60;56.40;;;;;;2092539;28;1260;-52
2021/04/07 04:05:25;;;;;;;;;;;12.70;56.30;;;;;;2092375;28;1635;-52
2021/04/07 04:06:45;;;;;;;;;;;12.70;56.10;;;;;;2084645;28;1223;-52
2021/04/07 04:08:05;;;;;;;;;;;12.80;56.00;;;;;;2087535;28;1721;-52
2021/04/07 04:09:24;;;;;;;;;;;12.90;55.90;;;;;;2089448;28;1895;-53
2021/04/07 04:10:43;;;;;;;;;;;12.90;55.70;;;;;;2091117;28;1585;-52
2021/04/07 04:12:02;;;;;;;;;;;13.00;55.70;;;;;;2080369;28;1277;-52
2021/04/07 04:13:21;;;;;;;;;;;13.00;55.50;;;;;;2089683;28;1243;-52
2021/04/07 04:14:41;;;;;;;;;;;13.10;55.40;;;;;;2080171;28;1406;-52
2021/04/07 04:16:00;;;;;;;;;;;13.20;55.30;;;;;;2086742;28;1084;-54
2021/04/07 04:17:19;;;;;;;;;;;13.20;55.20;;;;;;2089421;28;1600;-52
2021/04/07 04:18:38;;;;;;;;;;;13.30;55.20;;;;;;2091288;28;1526;-54
2021/04/07 04:19:57;;;;;;;;;;;13.30;55.00;;;;;;2081697;28;1280;-54
2021/04/07 04:21:17;;;;;;;;;;;13.40;54.90;;;;;;2087306;28;1226;-53
2021/04/07 04:22:36;;;;;;;;;;;13.40;55.30;;;;;;2085368;28;1384;-56
2021/04/07 04:23:55;;;;;;;;;;;13.50;54.80;;;;;;2087534;28;1233;-55
2021/04/07 04:25:15;;;;;;;;;;;13.50;54.70;;;;;;2090167;28;1313;-54
2021/04/07 04:26:34;;;;;;;;;;;13.60;54.70;;;;;;2091036;28;1299;-56
2021/04/07 04:27:53;;;;;;;;;;;13.60;54.70;;;;;;2085944;28;1435;-54
2021/04/07 04:29:13;;;;;;;;;;;13.60;54.60;;;;;;2090574;28;1906;-56
2021/04/07 04:30:32;;;;;;;;;;;13.60;54.60;;;;;;2091201;28;1319;-54
2021/04/07 04:31:51;;;;;;;;;;;13.70;54.60;;;;;;2088320;28;1214;-54
2021/04/07 04:33:11;;;;;;;;;;;13.70;54.60;;;;;;2090359;28;1277;-57
2021/04/07 04:34:30;;;;;;;;;;;13.70;54.60;;;;;;2087685;28;905;-56
2021/04/07 04:35:49;;;;;;;;;;;13.70;54.60;;;;;;2089438;28;1146;-55
2021/04/07 04:37:08;;;;;;;;;;;13.70;54.60;;;;;;2089663;28;1339;-55
2021/04/07 04:38:27;;;;;;;;;;;13.70;54.60;;;;;;2089349;28;1629;-55
2021/04/07 04:39:47;;;;;;;;;;;13.70;54.70;;;;;;2088091;28;1172;-54
2021/04/07 04:41:06;;;;;;;;;;;13.70;55.20;;;;;;2087505;28;1242;-55
2021/04/07 04:42:25;;;;;;;;;;;13.70;54.80;;;;;;2080454;28;1220;-54
2021/04/07 04:43:44;;;;;;;;;;;13.70;54.80;;;;;;2082372;28;1143;-56
2021/04/07 04:45:04;;;;;;;;;;;13.70;54.90;;;;;;2084653;28;1281;-58
2021/04/07 04:46:23;;;;;;;;;;;13.70;55.00;;;;;;2083304;28;1262;-55
2021/04/07 04:47:43;;;;;;;;;;;13.70;55.00;;;;;;2080511;28;1083;-55
2021/04/07 04:49:02;;;;;;;;;;;13.70;55.10;;;;;;2084999;28;1902;-54
2021/04/07 04:50:21;;;;;;;;;;;13.70;55.10;;;;;;2083012;28;1413;-56
2021/04/07 04:51:40;;;;;;;;;;;13.70;55.10;;;;;;2086208;28;727;-54
2021/04/07 04:53:00;;;;;;;;;;;13.70;55.20;;;;;;2073530;28;958;-55
2021/04/07 04:54:19;;;;;;;;;;;13.70;55.20;;;;;;2078682;28;771;-57
2021/04/07 04:55:37;;;;;;;;;;;13.60;55.30;;;;;;2097553;23;1859;-58
2021/04/07 04:56:56;;;;;;;;;;;13.60;55.40;;;;;;2076850;28;905;-58
2021/04/07 04:58:15;;;;;;;;;;;13.60;55.50;;;;;;2080090;28;989;-58
2021/04/07 04:59:34;;;;;;;;;;;13.60;56.10;;;;;;2085394;28;1384;-59
2021/04/07 05:00:54;;;;;;;;;;;13.60;56.00;;;;;;2089030;28;1157;-59
2021/04/07 05:02:13;;;;;;;;;;;13.50;55.70;;;;;;2080093;28;750;-59
2021/04/07 05:03:32;;;;;;;;;;;13.50;56.00;;;;;;2069420;28;769;-57
2021/04/07 05:04:51;;;;;;;;;;;13.50;56.70;;;;;;2082182;28;1483;-61
2021/04/07 05:16:20;;;;;;;;;;;13.40;57.20;;;;;;2471027;22;1948;-86
2021/04/07 05:17:39;;;;;;;;;;;13.40;57.10;;;;;;2036430;29;1734;-87
2021/04/07 05:19:17;;;;;;;;;;;13.40;57.00;;;;;;2043382;28;1014;-90
2021/04/07 05:20:36;;;;;;;;;;;13.50;57.10;;;;;;2041446;29;873;-87
2021/04/07 05:21:56;;;;;;;;;;;13.50;57.00;;;;;;2039616;29;1167;-87
2021/04/07 05:23:18;;;;;;;;;;;13.50;56.90;;;;;;2041347;29;995;-88
2021/04/07 05:24:45;;;;;;;;;;;13.50;56.90;;;;;;2040711;29;920;-88
2021/04/07 05:26:04;;;;;;;;;;;13.50;56.80;;;;;;2047137;28;1406;-88
2021/04/07 05:27:23;;;;;;;;;;;13.50;56.80;;;;;;2037479;29;826;-87
2021/04/07 05:28:42;;;;;;;;;;;13.50;56.80;;;;;;2040067;29;861;-86
2021/04/07 05:30:01;;;;;;;;;;;13.50;56.80;;;;;;2045138;29;776;-87
2021/04/07 05:31:20;;;;;;;;;;;13.50;56.80;;;;;;2034470;29;892;-88
2021/04/07 05:32:40;;;;;;;;;;;13.50;56.90;;;;;;2035852;29;988;-89
2021/04/07 05:33:59;;;;;;;;;;;13.50;57.00;;;;;;2036024;29;920;-88
2021/04/07 05:35:21;;;;;;;;;;;13.50;57.00;;;;;;2024714;29;993;-89
2021/04/07 05:36:41;;;;;;;;;;;13.40;57.00;;;;;;2023827;29;1414;-90
2021/04/07 05:38:00;;;;;;;;;;;13.40;57.20;;;;;;2038404;29;901;-89
2021/04/07 05:39:19;;;;;;;;;;;13.40;57.20;;;;;;2038631;29;788;-89
2021/04/07 05:40:41;;;;;;;;;;;13.40;57.30;;;;;;2019991;29;814;-89
2021/04/07 05:42:01;;;;;;;;;;;13.40;57.40;;;;;;2041213;29;949;-88
2021/04/07 05:43:20;;;;;;;;;;;13.40;57.50;;;;;;2028560;29;813;-89
2021/04/07 05:44:39;;;;;;;;;;;13.40;57.50;;;;;;2020986;29;881;-87
2021/04/07 05:45:58;;;;;;;;;;;13.40;57.60;;;;;;2033637;29;880;-88
2021/04/07 05:47:18;;;;;;;;;;;13.40;57.80;;;;;;2036121;29;960;-89
2021/04/07 05:48:37;;;;;;;;;;;13.30;57.70;;;;;;2038387;29;793;-89
2021/04/07 05:49:56;;;;;;;;;;;13.30;58.00;;;;;;2041721;29;821;-88
2021/04/07 05:51:15;;;;;;;;;;;13.30;58.50;;;;;;2045343;29;881;-89
2021/04/07 05:52:35;;;;;;;;;;;13.30;59.20;;;;;;2031117;29;837;-88
2021/04/07 05:53:54;;;;;;;;;;;13.30;59.30;;;;;;2026346;29;1036;-87
2021/04/07 05:55:13;;;;;;;;;;;13.30;59.40;;;;;;2041097;29;939;-87
2021/04/07 05:56:33;;;;;;;;;;;13.30;58.90;;;;;;2053391;28;1420;-88
2021/04/07 05:57:55;;;;;;;;;;;13.20;58.80;;;;;;2041298;29;895;-89
2021/04/07 05:59:14;;;;;;;;;;;13.20;58.80;;;;;;2022091;29;961;-88
2021/04/07 06:00:37;;;;;;;;;;;13.10;58.80;;;;;;2036118;29;879;-89
2021/04/07 06:01:59;;;;;;;;;;;13.10;58.90;;;;;;2023114;29;822;-88
2021/04/07 06:03:18;;;;;;;;;;;13.10;59.00;;;;;;2034146;29;984;-90
2021/04/07 06:04:37;;;;;;;;;;;13.10;59.10;;;;;;2031094;29;1044;-86
2021/04/07 06:05:56;;;;;;;;;;;13.00;59.20;;;;;;2032050;29;934;-87
2021/04/07 06:07:16;;;;;;;;;;;13.00;59.20;;;;;;2033896;29;939;-87
2021/04/07 06:08:37;;;;;;;;;;;13.00;59.20;;;;;;2038696;29;813;-88
2021/04/07 06:09:59;;;;;;;;;;;12.90;59.30;;;;;;2037694;29;1121;-89
2021/04/07 06:11:19;;;;;;;;;;;13.00;59.40;;;;;;2033299;29;810;-89
2021/04/07 06:12:38;;;;;;;;;;;12.90;59.50;;;;;;2035378;29;1124;-88
2021/04/07 06:14:00;;;;;;;;;;;13.00;59.70;;;;;;2024618;29;949;-90
2021/04/07 06:15:20;;;;;;;;;;;12.90;59.60;;;;;;2040080;29;864;-88
2021/04/07 06:16:39;;;;;;;;;;;12.90;60.40;;;;;;2020761;29;1427;-88
2021/04/07 06:18:08;;;;;;;;;;;12.90;59.80;;;;;;2038190;29;966;-87
2021/04/07 06:19:27;;;;;;;;;;;12.90;59.90;;;;;;2034268;29;1302;-88
2021/04/07 06:20:47;;;;;;;;;;;12.90;59.90;;;;;;2046700;28;809;-87
2021/04/07 06:22:06;;;;;;;;;;;12.80;59.90;;;;;;2046498;28;782;-87
2021/04/07 06:23:25;;;;;;;;;;;12.80;60.00;;;;;;2043190;29;1187;-88
2021/04/07 06:24:44;;;;;;;;;;;12.80;60.80;;;;;;2035621;29;873;-88
2021/04/07 06:26:04;;;;;;;;;;;12.80;60.10;;;;;;2032134;29;1034;-87
2021/04/07 06:27:23;;;;;;;;;;;12.80;60.20;;;;;;2036775;29;927;-86
2021/04/07 06:28:42;;;;;;;;;;;12.80;60.30;;;;;;2041520;29;1019;-87
2021/04/07 06:30:02;;;;;;;;;;;12.70;60.20;;;;;;2039969;29;1015;-86
2021/04/07 06:31:21;;;;;;;;;;;12.70;60.30;;;;;;2024246;29;661;-90
2021/04/07 06:32:43;;;;;;;;;;;12.70;60.30;;;;;;2026928;29;615;-87
2021/04/07 06:34:02;;;;;;;;;;;12.70;60.60;;;;;;2036618;29;614;-86
2021/04/07 06:35:21;;;;;;;;;;;12.70;60.70;;;;;;2039669;29;598;-87
2021/04/07 06:36:40;;;;;;;;;;;12.70;60.80;;;;;;2031706;29;1347;-87
2021/04/07 06:38:03;;;;;;;;;;;12.60;61.50;;;;;;2021973;29;1126;-87
2021/04/07 06:39:25;;;;;;;;;;;12.60;61.50;;;;;;2037866;29;900;-87
2021/04/07 06:40:44;;;;;;;;;;;12.60;60.90;;;;;;2027292;29;995;-85
2021/04/07 06:42:05;;;;;;;;;;;12.60;61.00;;;;;;2044506;29;635;-86
2021/04/07 06:43:25;;;;;;;;;;;12.60;61.00;;;;;;2029177;29;662;-85
2021/04/07 06:44:44;;;;;;;;;;;12.60;61.30;;;;;;2040592;29;614;-86
2021/04/07 06:46:04;;;;;;;;;;;12.60;61.90;;;;;;2027981;29;653;-85
2021/04/07 06:47:23;;;;;;;;;;;12.60;62.20;;;;;;2040166;29;634;-85
2021/04/07 06:48:42;;;;;;;;;;;12.60;62.80;;;;;;2035592;29;591;-85
2021/04/07 06:50:02;;;;;;;;;;;12.60;62.70;;;;;;2035830;29;658;-85
2021/04/07 06:51:21;;;;;;;;;;;12.60;62.70;;;;;;2040129;29;693;-84
2021/04/07 06:52:41;;;;;;;;;;;12.60;62.60;;;;;;2022460;29;669;-88
2021/04/07 06:54:03;;;;;;;;;;;12.60;62.20;;;;;;2037290;29;670;-85
2021/04/07 06:55:23;;;;;;;;;;;12.60;62.20;;;;;;2022563;29;606;-86
2021/04/07 06:56:42;;;;;;;;;;;12.50;62.10;;;;;;2028646;29;1501;-86
2021/04/07 06:58:02;;;;;;;;;;;12.50;62.10;;;;;;2040101;29;666;-87
2021/04/07 06:59:24;;;;;;;;;;;12.50;62.20;;;;;;2046589;29;610;-87
2021/04/07 07:00:43;;;;;;;;;;;12.50;62.90;;;;;;2028017;29;1128;-85
2021/04/07 07:02:03;;;;;;;;;;;12.50;62.20;;;;;;2030539;29;1249;-88
2021/04/07 07:03:22;;;;;;;;;;;12.50;62.30;;;;;;2043481;29;1128;-88
2021/04/07 07:04:41;;;;;;;;;;;12.40;62.30;;;;;;2045008;29;1049;-89
2021/04/07 07:06:00;;;;;;;;;;;12.50;62.40;;;;;;2027583;29;1071;-85
2021/04/07 07:07:22;;;;;;;;;;;12.40;62.30;;;;;;2037031;29;1090;-88
2021/04/07 07:08:41;;;;;;;;;;;12.40;62.50;;;;;;2025483;29;1162;-88
2021/04/07 07:10:00;;;;;;;;;;;12.40;62.60;;;;;;2031563;29;1075;-87
2021/04/07 07:11:20;;;;;;;;;;;12.40;62.60;;;;;;2021300;29;686;-88
2021/04/07 07:12:39;;;;;;;;;;;12.40;63.40;;;;;;2033569;29;610;-89
2021/04/07 07:13:58;;;;;;;;;;;12.40;63.30;;;;;;2038931;29;613;-87
2021/04/07 07:15:17;;;;;;;;;;;12.40;62.60;;;;;;2034938;29;1381;-88
2021/04/07 07:16:37;;;;;;;;;;;12.40;62.60;;;;;;2036776;29;1315;-88
2021/04/07 07:17:59;;;;;;;;;;;12.40;62.50;;;;;;2040253;29;673;-88
2021/04/07 07:19:21;;;;;;;;;;;12.40;62.30;;;;;;2031366;29;646;-88
2021/04/07 07:20:40;;;;;;;;;;;12.40;62.40;;;;;;2038183;29;622;-86
2021/04/07 07:22:03;;;;;;;;;;;12.40;62.30;;;;;;2039429;29;638;-89
2021/04/07 07:23:26;;;;;;;;;;;12.40;63.00;;;;;;2040299;29;674;-90
2021/04/07 07:24:50;;;;;;;;;;;12.30;62.20;;;;;;2035201;29;649;-86
2021/04/07 07:26:09;;;;;;;;;;;12.30;62.30;;;;;;2032245;29;1437;-88
2021/04/07 07:27:34;;;;;;;;;;;12.30;62.20;;;;;;2032050;29;634;-88
2021/04/07 07:28:55;;;;;;;;;;;12.30;62.30;;;;;;2042975;29;589;-88
2021/04/07 07:30:14;;;;;;;;;;;12.30;62.30;;;;;;2030234;29;579;-87
2021/04/07 07:31:33;;;;;;;;;;;12.30;62.40;;;;;;2025921;29;909;-87
2021/04/07 07:32:53;;;;;;;;;;;12.30;62.40;;;;;;2031244;29;1047;-88
2021/04/07 07:34:12;;;;;;;;;;;12.30;62.40;;;;;;2019227;29;634;-88
2021/04/07 07:35:34;;;;;;;;;;;12.30;62.40;;;;;;2032546;29;1235;-88
2021/04/07 07:36:53;;;;;;;;;;;12.30;63.10;;;;;;2034183;29;1507;-88
2021/04/07 07:38:22;;;;;;;;;;;12.30;62.50;;;;;;2022766;29;665;-87
2021/04/07 07:39:41;;;;;;;;;;;12.30;62.60;;;;;;2032428;29;679;-88
2021/04/07 07:41:05;;;;;;;;;;;12.30;62.70;;;;;;2018426;29;638;-88
2021/04/07 07:42:24;;;;;;;;;;;12.30;63.40;;;;;;2028858;29;650;-88
2021/04/07 07:43:43;;;;;;;;;;;12.40;62.60;;;;;;2022762;29;1458;-87
2021/04/07 07:45:05;;;;;;;;;;;12.40;62.30;;;;;;2036087;29;661;-88
2021/04/07 07:46:28;;;;;;;;;;;12.40;62.10;;;;;;2026201;29;1470;-89
2021/04/07 07:47:47;;;;;;;;;;;12.50;62.00;;;;;;2036947;29;1389;-87
2021/04/07 07:49:17;;;;;;;;;;;12.50;61.70;;;;;;2033989;29;1895;-88
2021/04/07 07:50:39;;;;;;;;;;;12.60;61.50;;;;;;2040635;29;618;-89
2021/04/07 07:51:59;;;;;;;;;;;12.70;61.20;;;;;;2037111;29;650;-88
2021/04/07 07:53:21;;;;;;;;;;;12.70;60.80;;;;;;2031191;29;607;-88
2021/04/07 07:54:41;;;;;;;;;;;12.70;60.60;;;;;;2037355;29;697;-87
2021/04/07 07:56:03;;;;;;;;;;;12.80;60.30;;;;;;2034363;29;602;-88
2021/04/07 07:57:22;;;;;;;;;;;12.80;60.10;;;;;;2039895;29;637;-88
2021/04/07 07:58:45;;;;;;;;;;;12.80;59.90;;;;;;2034046;29;1389;-88
2021/04/07 08:00:08;;;;;;;;;;;12.90;60.70;;;;;;2039587;29;595;-88
2021/04/07 08:01:27;;;;;;;;;;;12.80;59.80;;;;;;2034344;29;610;-88
2021/04/07 08:02:46;;;;;;;;;;;12.80;59.80;;;;;;2039273;29;1074;-88
2021/04/07 08:04:06;;;;;;;;;;;12.80;59.70;;;;;;2029689;29;602;-88